createdAt,value
2022-12-20T00:01:49.195Z,19.77
2022-12-20T00:04:52.215Z,18.90
2022-12-20T00:07:55.134Z,19.70
2022-12-20T00:11:00.713Z,19.10
2022-12-20T00:14:05.048Z,17.67
2022-12-20T00:17:07.934Z,18.90
2022-12-20T00:20:11.800Z,18.57
2022-12-20T00:23:14.754Z,17.93
2022-12-20T00:26:21.417Z,17.83
2022-12-20T00:29:25.735Z,19.00
2022-12-20T00:32:28.827Z,18.27
2022-12-20T00:35:31.756Z,18.80
2022-12-20T00:38:36.914Z,19.53
2022-12-20T00:41:39.894Z,19.83
2022-12-20T00:44:44.638Z,18.83
2022-12-20T00:47:47.649Z,18.47
2022-12-20T00:50:50.987Z,19.07
2022-12-20T00:53:54.277Z,17.23
2022-12-20T00:56:57.201Z,18.67
2022-12-20T01:00:01.492Z,17.80
2022-12-20T01:03:04.672Z,17.27
2022-12-20T01:06:08.342Z,16.83
2022-12-20T01:09:12.587Z,17.23
2022-12-20T01:12:15.617Z,18.13
2022-12-20T01:15:21.324Z,17.20
2022-12-20T01:18:24.285Z,17.63
2022-12-20T01:21:28.514Z,16.97
2022-12-20T01:24:31.452Z,17.20
2022-12-20T01:27:34.479Z,17.30
2022-12-20T01:30:43.316Z,16.73
2022-12-20T01:33:47.651Z,18.57
2022-12-20T01:36:51.245Z,17.37
2022-12-20T01:39:54.154Z,17.13
2022-12-20T01:42:57.099Z,16.57
2022-12-20T01:46:01.522Z,17.27
2022-12-20T01:49:10.690Z,15.63
2022-12-20T01:52:17.310Z,16.37
2022-12-20T01:55:23.992Z,16.17
2022-12-20T01:58:26.941Z,16.23
2022-12-20T02:01:31.475Z,15.67
2022-12-20T02:04:34.584Z,17.17
2022-12-20T02:07:39.395Z,16.93
2022-12-20T02:10:56.026Z,17.00
2022-12-20T02:14:11.021Z,17.23
2022-12-20T02:17:24.170Z,15.70
2022-12-20T02:20:54.208Z,16.67
2022-12-20T02:24:36.620Z,16.87
2022-12-20T02:27:49.928Z,17.57
2022-12-20T02:30:56.874Z,16.23
2022-12-20T02:34:01.408Z,15.93
2022-12-20T02:37:04.654Z,16.60
2022-12-20T02:40:09.786Z,17.57
2022-12-20T02:43:27.026Z,16.67
2022-12-20T02:46:33.457Z,16.67
2022-12-20T02:49:41.149Z,15.67
2022-12-20T02:52:44.628Z,16.93
2022-12-20T02:55:51.833Z,16.30
2022-12-20T02:58:59.795Z,15.17
2022-12-20T03:02:04.759Z,14.67
2022-12-20T03:05:08.394Z,15.33
2022-12-20T03:08:11.499Z,16.27
2022-12-20T03:11:14.591Z,15.83
2022-12-20T03:14:17.520Z,15.53
2022-12-20T03:17:21.849Z,16.17
2022-12-20T03:20:25.932Z,16.10
2022-12-20T03:23:28.904Z,15.53
2022-12-20T03:26:31.834Z,15.53
2022-12-20T03:29:34.800Z,15.03
2022-12-20T03:32:39.187Z,15.80
2022-12-20T03:35:42.193Z,15.90
2022-12-20T03:38:45.130Z,15.17
2022-12-20T03:41:48.014Z,14.53
2022-12-20T03:44:50.997Z,14.37
2022-12-20T03:47:55.263Z,14.77
2022-12-20T03:50:58.215Z,16.20
2022-12-20T03:54:01.212Z,15.23
2022-12-20T03:57:04.220Z,14.80
2022-12-20T04:00:08.675Z,15.57
2022-12-20T04:03:13.134Z,15.73
2022-12-20T04:06:16.609Z,14.93
2022-12-20T04:09:19.538Z,15.33
2022-12-20T04:12:22.479Z,16.00
2022-12-20T04:15:25.433Z,14.87
2022-12-20T04:18:30.152Z,15.93
2022-12-20T04:21:35.128Z,15.33
2022-12-20T04:24:38.285Z,15.03
2022-12-20T04:27:41.241Z,14.70
2022-12-20T04:30:44.181Z,14.10
2022-12-20T04:33:49.500Z,14.90
2022-12-20T04:36:52.440Z,14.83
2022-12-20T04:39:56.310Z,14.60
2022-12-20T04:42:59.291Z,14.30
2022-12-20T04:46:02.303Z,15.80
2022-12-20T04:49:06.747Z,14.87
2022-12-20T04:52:23.549Z,14.97
2022-12-20T04:55:26.469Z,15.20
2022-12-20T04:58:30.094Z,15.23
2022-12-20T05:01:33.048Z,14.73
2022-12-20T05:04:37.919Z,14.47
2022-12-20T05:07:41.079Z,15.90
2022-12-20T05:10:43.990Z,15.60
2022-12-20T05:13:46.941Z,15.63
2022-12-20T05:16:49.902Z,15.37
2022-12-20T05:19:54.169Z,15.37
2022-12-20T05:23:14.811Z,15.80
2022-12-20T05:26:20.520Z,15.53
2022-12-20T05:29:23.568Z,15.10
2022-12-20T05:32:26.508Z,15.40
2022-12-20T05:35:30.826Z,15.87
2022-12-20T05:38:33.817Z,15.90
2022-12-20T05:41:36.841Z,15.03
2022-12-20T05:44:39.733Z,15.27
2022-12-20T05:47:42.675Z,15.37
2022-12-20T05:50:47.500Z,15.03
2022-12-20T05:53:50.695Z,14.53
2022-12-20T05:56:53.637Z,15.50
2022-12-20T05:59:56.579Z,15.77
2022-12-20T06:02:59.667Z,15.70
2022-12-20T06:06:08.653Z,15.60
2022-12-20T06:09:14.957Z,15.20
2022-12-20T06:12:18.050Z,14.93
2022-12-20T06:15:21.043Z,15.97
2022-12-20T06:18:24.075Z,16.57
2022-12-20T06:21:28.496Z,17.33
2022-12-20T06:24:31.492Z,16.03
2022-12-20T06:27:34.521Z,15.13
2022-12-20T06:30:37.531Z,15.30
2022-12-20T06:33:40.553Z,15.03
2022-12-20T06:36:44.806Z,14.90
2022-12-20T06:39:47.834Z,14.70
2022-12-20T06:42:51.009Z,15.73
2022-12-20T06:45:54.055Z,15.77
2022-12-20T06:48:57.773Z,16.87
2022-12-20T06:52:02.143Z,16.80
2022-12-20T06:55:05.557Z,17.77
2022-12-20T06:58:08.538Z,17.13
2022-12-20T07:01:11.505Z,18.03
2022-12-20T07:04:14.506Z,17.27
2022-12-20T07:07:18.884Z,17.60
2022-12-20T07:10:21.859Z,17.83
2022-12-20T07:13:24.880Z,17.33
2022-12-20T07:16:29.209Z,17.93
2022-12-20T07:19:32.185Z,17.17
2022-12-20T07:22:36.907Z,17.40
2022-12-20T07:25:40.022Z,17.80
2022-12-20T07:28:43.976Z,17.67
2022-12-20T07:31:47.030Z,18.03
2022-12-20T07:34:49.977Z,18.27
2022-12-20T07:37:54.313Z,19.13
2022-12-20T07:40:57.541Z,18.30
2022-12-20T07:44:00.677Z,18.43
2022-12-20T07:47:03.762Z,19.13
2022-12-20T07:50:08.216Z,18.57
2022-12-20T07:53:13.007Z,19.97
2022-12-20T07:56:17.534Z,19.77
2022-12-20T07:59:23.703Z,20.40
2022-12-20T08:02:30.098Z,19.23
2022-12-20T08:05:34.795Z,20.20
2022-12-20T08:08:42.202Z,20.57
2022-12-20T08:11:48.649Z,20.90
2022-12-20T08:14:56.172Z,20.00
2022-12-20T08:17:59.220Z,20.07
2022-12-20T08:21:02.197Z,20.50
2022-12-20T08:24:08.198Z,19.87
2022-12-20T08:27:11.160Z,19.00
2022-12-20T08:30:14.984Z,20.87
2022-12-20T08:33:17.955Z,19.93
2022-12-20T08:36:20.893Z,20.63
2022-12-20T08:39:25.407Z,19.50
2022-12-20T08:42:28.617Z,22.93
2022-12-20T08:45:32.130Z,21.80
2022-12-20T08:48:35.513Z,21.17
2022-12-20T08:51:38.528Z,21.10
2022-12-20T08:54:42.823Z,20.30
2022-12-20T08:57:45.814Z,19.90
2022-12-20T09:00:48.780Z,20.30
2022-12-20T09:03:51.748Z,21.80
2022-12-20T09:06:54.845Z,20.43
2022-12-20T09:09:59.183Z,20.13
2022-12-20T09:13:02.163Z,20.10
2022-12-20T09:16:07.176Z,20.50
2022-12-20T09:19:13.961Z,19.87
2022-12-20T09:22:16.886Z,20.20
2022-12-20T09:25:21.233Z,18.57
2022-12-20T09:28:24.212Z,18.67
2022-12-20T09:31:28.032Z,18.03
2022-12-20T09:34:30.994Z,18.60
2022-12-20T09:37:34.466Z,19.40
2022-12-20T09:40:39.102Z,19.87
2022-12-20T09:43:42.171Z,19.00
2022-12-20T09:46:46.501Z,20.17
2022-12-20T09:49:52.652Z,18.50
2022-12-20T09:53:12.202Z,18.03
2022-12-20T09:56:27.739Z,19.03
2022-12-20T09:59:34.246Z,17.80
2022-12-20T10:03:00.079Z,17.77
2022-12-20T10:06:11.624Z,17.93
2022-12-20T10:09:29.619Z,17.23
2022-12-20T10:12:43.506Z,18.40
2022-12-20T10:15:52.323Z,17.43
2022-12-20T10:19:03.721Z,16.13
2022-12-20T10:22:12.758Z,16.63
2022-12-20T10:25:19.897Z,15.57
2022-12-20T10:28:28.548Z,17.40
2022-12-20T10:31:31.685Z,16.90
2022-12-20T10:34:38.278Z,16.10
2022-12-20T10:38:14.046Z,17.43
2022-12-20T10:41:22.191Z,17.77
2022-12-20T10:44:29.729Z,16.20
2022-12-20T10:47:41.704Z,15.97
2022-12-20T10:50:44.660Z,17.53
2022-12-20T10:53:59.971Z,17.70
2022-12-20T10:57:15.053Z,16.60
2022-12-20T11:00:30.849Z,16.73
2022-12-20T11:03:34.264Z,15.70
2022-12-20T11:06:46.170Z,15.97
2022-12-20T11:09:54.114Z,16.23
2022-12-20T11:12:58.732Z,15.87
2022-12-20T11:16:03.139Z,14.63
2022-12-20T11:19:31.367Z,15.60
2022-12-20T11:22:47.337Z,15.43
2022-12-20T11:26:11.029Z,14.63
2022-12-20T11:29:41.646Z,14.47
2022-12-20T11:33:11.705Z,15.77
2022-12-20T11:36:23.427Z,15.77
2022-12-20T11:39:35.842Z,15.00
2022-12-20T11:42:59.957Z,14.17
2022-12-20T11:46:19.828Z,14.73
2022-12-20T11:49:58.605Z,15.83
2022-12-20T11:53:06.544Z,15.00
2022-12-20T11:56:15.388Z,16.20
2022-12-20T11:59:26.593Z,15.13
2022-12-20T12:02:35.975Z,14.80
2022-12-20T12:05:45.388Z,15.00
2022-12-20T12:08:54.048Z,15.40
2022-12-20T12:12:08.544Z,15.70
2022-12-20T12:15:23.286Z,15.47
2022-12-20T12:18:31.360Z,15.70
2022-12-20T12:21:40.025Z,14.57
2022-12-20T12:24:47.762Z,15.57
2022-12-20T12:27:50.814Z,16.07
2022-12-20T12:30:58.870Z,14.97
2022-12-20T12:34:08.891Z,15.87
2022-12-20T12:37:38.278Z,15.40
2022-12-20T12:41:04.110Z,15.77
2022-12-20T12:44:31.597Z,14.93
2022-12-20T12:47:40.335Z,15.17
2022-12-20T12:50:46.843Z,14.17
2022-12-20T12:53:53.737Z,15.40
2022-12-20T12:57:03.142Z,14.97
2022-12-20T13:00:49.360Z,14.77
2022-12-20T13:04:11.516Z,15.27
2022-12-20T13:07:43.484Z,15.10
2022-12-20T13:11:02.683Z,15.90
2022-12-20T13:14:13.622Z,14.50
2022-12-20T13:17:48.839Z,15.30
2022-12-20T13:21:33.417Z,15.00
2022-12-20T13:24:56.275Z,15.10
2022-12-20T13:28:32.566Z,14.43
2022-12-20T13:31:37.535Z,14.83
2022-12-20T13:34:55.215Z,14.53
2022-12-20T13:38:01.967Z,14.60
2022-12-20T13:41:19.244Z,15.13
2022-12-20T13:44:45.047Z,14.70
2022-12-20T13:47:55.609Z,14.50
2022-12-20T13:50:59.445Z,15.33
2022-12-20T13:54:05.468Z,14.27
2022-12-20T13:57:09.010Z,13.80
2022-12-20T14:00:17.743Z,13.87
2022-12-20T14:03:28.232Z,14.47
2022-12-20T14:06:31.154Z,15.27
2022-12-20T14:09:36.542Z,14.30
2022-12-20T14:12:46.293Z,14.80
2022-12-20T14:15:49.777Z,15.73
2022-12-20T14:19:02.153Z,14.80
2022-12-20T14:22:05.156Z,14.53
2022-12-20T14:25:10.140Z,14.13
2022-12-20T14:28:27.991Z,15.00
2022-12-20T14:31:38.425Z,14.60
2022-12-20T14:34:44.569Z,15.77
2022-12-20T14:37:55.641Z,16.10
2022-12-20T14:40:58.878Z,16.23
2022-12-20T14:44:05.168Z,15.90
2022-12-20T14:47:17.450Z,15.97
2022-12-20T14:50:25.755Z,15.93
2022-12-20T14:53:28.985Z,17.27
2022-12-20T14:56:33.452Z,17.00
2022-12-20T14:59:36.421Z,16.20
2022-12-20T15:02:42.998Z,15.37
2022-12-20T15:05:52.377Z,16.17
2022-12-20T15:08:55.344Z,15.87
2022-12-20T15:11:59.177Z,16.73
2022-12-20T15:15:24.022Z,16.80
2022-12-20T15:18:25.598Z,17.00
2022-12-20T15:21:33.958Z,16.93
2022-12-20T15:24:36.935Z,16.33
2022-12-20T15:27:39.864Z,17.87
2022-12-20T15:30:43.023Z,16.67
2022-12-20T15:33:47.324Z,18.50
2022-12-20T15:36:51.726Z,16.77
2022-12-20T15:39:55.364Z,16.83
2022-12-20T15:42:58.465Z,16.70
2022-12-20T15:46:01.438Z,16.63
2022-12-20T15:49:04.695Z,17.87
2022-12-20T15:52:20.468Z,16.97
2022-12-20T15:55:23.382Z,16.90
2022-12-20T15:58:27.195Z,18.30
2022-12-20T16:01:40.486Z,16.53
2022-12-20T16:04:44.609Z,17.97
2022-12-20T16:07:48.888Z,17.10
2022-12-20T16:10:53.330Z,18.10
2022-12-20T16:13:57.407Z,16.43
2022-12-20T16:17:00.406Z,17.00
2022-12-20T16:20:03.428Z,18.07
2022-12-20T16:23:16.856Z,18.93
2022-12-20T16:26:21.357Z,18.37
2022-12-20T16:29:24.286Z,20.60
2022-12-20T16:32:27.275Z,19.53
2022-12-20T16:35:32.291Z,20.10
2022-12-20T16:38:36.616Z,20.33
2022-12-20T16:41:43.560Z,20.37
2022-12-20T16:44:48.037Z,22.30
2022-12-20T16:47:53.009Z,18.87
2022-12-20T16:50:55.966Z,19.90
2022-12-20T16:54:17.792Z,19.37
2022-12-20T16:57:22.245Z,18.80
2022-12-20T17:00:27.891Z,19.63
2022-12-20T17:03:31.032Z,21.57
2022-12-20T17:06:35.449Z,19.73
2022-12-20T17:09:39.788Z,19.57
2022-12-20T17:12:42.724Z,20.93
2022-12-20T17:15:47.544Z,20.17
2022-12-20T17:18:51.899Z,20.83
2022-12-20T17:25:22.772Z,22.53
2022-12-20T17:28:26.250Z,22.40
2022-12-20T17:31:31.423Z,22.57
2022-12-20T17:34:35.270Z,22.00
2022-12-20T17:37:38.208Z,20.47
2022-12-20T17:40:42.517Z,20.20
2022-12-20T17:43:45.553Z,23.07
2022-12-20T17:46:49.081Z,20.23
2022-12-20T17:49:52.034Z,20.53
2022-12-20T17:52:55.508Z,19.40
2022-12-20T17:55:59.864Z,19.83
2022-12-20T17:59:05.546Z,19.83
2022-12-20T18:02:19.696Z,18.87
2022-12-20T18:05:23.079Z,18.67
2022-12-20T18:08:26.145Z,18.83
2022-12-20T18:11:30.533Z,17.27
2022-12-20T18:14:33.486Z,18.07
2022-12-20T18:17:36.537Z,17.73
2022-12-20T18:20:39.451Z,17.10
2022-12-20T18:23:43.493Z,17.77
2022-12-20T18:26:48.011Z,16.47
2022-12-20T18:29:50.916Z,17.43
2022-12-20T18:32:53.889Z,17.00
2022-12-20T18:36:05.291Z,18.40
2022-12-20T18:39:09.472Z,18.43
2022-12-20T18:42:13.752Z,17.60
2022-12-20T18:45:17.130Z,17.53
2022-12-20T18:48:20.052Z,18.30
2022-12-20T18:51:24.697Z,17.57
2022-12-20T18:54:30.362Z,19.43
2022-12-20T18:57:34.646Z,17.67
2022-12-20T19:00:37.642Z,17.40
2022-12-20T19:03:40.661Z,19.43
2022-12-20T19:06:43.750Z,19.33
2022-12-20T19:09:46.660Z,18.27
2022-12-20T19:12:50.937Z,17.37
2022-12-20T19:16:02.204Z,19.73
2022-12-20T19:19:05.281Z,19.47
2022-12-20T19:22:08.214Z,20.03
2022-12-20T19:25:11.704Z,19.33
2022-12-20T19:28:15.982Z,19.33
2022-12-20T19:31:23.555Z,18.33
2022-12-20T19:34:26.721Z,19.83
2022-12-20T19:37:37.013Z,18.47
2022-12-20T19:40:41.304Z,19.17
2022-12-20T19:43:45.874Z,17.83
2022-12-20T19:46:48.825Z,19.57
2022-12-20T19:49:52.063Z,20.60
2022-12-20T19:52:55.114Z,20.60
2022-12-20T19:55:58.163Z,19.93
2022-12-20T19:59:03.384Z,20.47
2022-12-20T20:02:06.585Z,22.07
2022-12-20T20:05:14.878Z,20.90
2022-12-20T20:08:18.450Z,20.23
2022-12-20T20:11:21.619Z,20.13
2022-12-20T20:14:25.966Z,20.10
2022-12-20T20:17:29.253Z,19.33
2022-12-20T20:20:34.835Z,19.93
2022-12-20T20:23:38.377Z,21.33
2022-12-20T20:26:41.434Z,19.90
2022-12-20T20:29:45.684Z,20.30
2022-12-20T20:32:48.684Z,21.30
2022-12-20T20:35:55.640Z,21.87
2022-12-20T20:38:58.597Z,21.53
2022-12-20T20:42:01.602Z,19.00
2022-12-20T20:45:06.719Z,19.33
2022-12-20T20:48:09.866Z,21.23
2022-12-20T20:51:13.241Z,21.27
2022-12-20T20:54:16.410Z,20.87
2022-12-20T20:57:19.643Z,20.77
2022-12-20T21:00:25.196Z,19.87
2022-12-20T21:03:29.296Z,19.20
2022-12-20T21:06:39.074Z,18.83
2022-12-20T21:09:42.535Z,20.33
2022-12-20T21:12:45.640Z,20.37
2022-12-20T21:15:50.154Z,19.87
2022-12-20T21:18:53.765Z,19.63
2022-12-20T21:21:56.760Z,19.83
2022-12-20T21:25:00.375Z,20.80
2022-12-20T21:28:03.488Z,20.23
2022-12-20T21:31:10.797Z,19.93
2022-12-20T21:34:13.890Z,20.20
2022-12-20T21:37:16.942Z,19.40
2022-12-20T21:40:19.982Z,20.37
2022-12-20T21:43:22.870Z,20.33
2022-12-20T21:46:28.795Z,21.23
2022-12-20T21:49:31.776Z,20.43
2022-12-20T21:52:35.232Z,19.97
2022-12-20T21:55:38.264Z,20.23
2022-12-20T21:58:41.219Z,19.67
2022-12-20T22:01:47.101Z,20.60
2022-12-20T22:04:50.300Z,19.97
2022-12-20T22:07:53.270Z,20.90
2022-12-20T22:11:01.037Z,19.30
2022-12-20T22:14:04.129Z,20.47
2022-12-20T22:17:08.386Z,20.53
2022-12-20T22:20:11.746Z,20.47
2022-12-20T22:23:15.087Z,20.77
2022-12-20T22:26:20.715Z,21.47
2022-12-20T22:29:23.655Z,19.90
2022-12-20T22:32:28.067Z,20.37
2022-12-20T22:35:30.965Z,19.90
2022-12-20T22:38:34.133Z,21.13
2022-12-20T22:41:37.172Z,21.13
2022-12-20T22:44:40.154Z,20.13
2022-12-20T22:47:44.622Z,20.67
2022-12-20T22:50:47.567Z,21.03
2022-12-20T22:53:51.040Z,20.67
2022-12-20T22:56:54.356Z,21.03
2022-12-20T22:59:58.808Z,19.23
2022-12-20T23:03:03.270Z,21.50
2022-12-20T23:06:08.827Z,20.50
2022-12-20T23:09:11.753Z,21.87
2022-12-20T23:12:32.244Z,20.90
2022-12-20T23:15:43.994Z,20.20
2022-12-20T23:18:48.265Z,21.37
2022-12-20T23:22:08.641Z,20.03
2022-12-20T23:25:14.062Z,21.20
2022-12-20T23:28:17.082Z,20.40
2022-12-20T23:31:20.045Z,20.53
2022-12-20T23:34:24.623Z,20.00
2022-12-20T23:37:29.009Z,21.10
2022-12-20T23:40:31.969Z,20.87
2022-12-20T23:43:35.011Z,20.00
2022-12-20T23:46:38.257Z,21.07
2022-12-20T23:49:42.574Z,22.03
2022-12-20T23:52:45.528Z,21.80
2022-12-20T23:55:58.764Z,22.10
2022-12-20T23:59:02.342Z,20.90
